createdAt,value
2019-02-20T00:01:26.325Z,102010.97
2019-02-20T00:03:55.509Z,102008.09
2019-02-20T00:06:24.628Z,102011.44
2019-02-20T00:08:53.740Z,102009.20
2019-02-20T00:11:23.939Z,102010.30
2019-02-20T00:13:53.058Z,102009.20
2019-02-20T00:16:22.439Z,102014.88
2019-02-20T00:18:51.555Z,102010.91
2019-02-20T00:21:20.936Z,102012.27
2019-02-20T00:23:50.052Z,102009.07
2019-02-20T00:26:19.170Z,102013.20
2019-02-20T00:28:48.304Z,102011.90
2019-02-20T00:31:17.413Z,102005.02
2019-02-20T00:33:46.538Z,102005.55
2019-02-20T00:36:15.645Z,102006.73
2019-02-20T00:38:44.763Z,102007.30
2019-02-20T00:41:13.878Z,102008.10
2019-02-20T00:43:44.630Z,102009.25
2019-02-20T00:46:18.247Z,102012.02
2019-02-20T00:48:49.009Z,102013.42
2019-02-20T00:51:19.761Z,102013.63
2019-02-20T00:53:50.530Z,102009.74
2019-02-20T00:56:19.632Z,102013.17
2019-02-20T00:58:48.754Z,102013.84
2019-02-20T01:01:17.865Z,102013.52
2019-02-20T01:03:46.984Z,102017.26
2019-02-20T01:06:17.477Z,102021.16
2019-02-20T01:08:46.589Z,102023.70
2019-02-20T01:11:15.699Z,102020.55
2019-02-20T01:13:44.814Z,102018.78
2019-02-20T01:16:13.931Z,102022.27
2019-02-20T01:18:43.365Z,102027.73
2019-02-20T01:21:12.475Z,102022.73
2019-02-20T01:23:41.592Z,102030.95
2019-02-20T01:26:10.704Z,102024.39
2019-02-20T01:28:39.821Z,102029.40
2019-02-20T01:31:08.931Z,102025.57
2019-02-20T01:33:38.050Z,102026.66
2019-02-20T01:36:07.159Z,102024.95
2019-02-20T01:38:36.284Z,102026.58
2019-02-20T01:41:05.397Z,102028.30
2019-02-20T01:43:35.492Z,102023.44
2019-02-20T01:46:04.603Z,102018.98
2019-02-20T01:48:33.717Z,102023.17
2019-02-20T01:51:02.833Z,102024.61
2019-02-20T01:53:31.943Z,102012.89
2019-02-20T01:56:01.060Z,102018.98
2019-02-20T01:58:30.171Z,102012.76
2019-02-20T02:00:59.297Z,102009.41
2019-02-20T02:03:28.404Z,102011.34
2019-02-20T02:05:57.794Z,102010.37
2019-02-20T02:08:26.904Z,102007.02
2019-02-20T02:10:56.025Z,102008.71
2019-02-20T02:13:25.136Z,102008.71
2019-02-20T02:15:54.268Z,102015.36
2019-02-20T02:18:23.384Z,102013.31
2019-02-20T02:20:52.494Z,102009.27
2019-02-20T02:23:21.626Z,102011.54
2019-02-20T02:25:51.030Z,102004.90
2019-02-20T02:28:20.138Z,102006.80
2019-02-20T02:30:49.259Z,101998.94
2019-02-20T02:33:18.371Z,102004.24
2019-02-20T02:35:47.484Z,102002.33
2019-02-20T02:38:16.598Z,101998.98
2019-02-20T02:40:45.707Z,102004.41
2019-02-20T02:43:14.843Z,102003.44
2019-02-20T02:45:43.949Z,101997.62
2019-02-20T02:48:13.404Z,101996.05
2019-02-20T02:50:42.807Z,101992.06
2019-02-20T02:53:11.931Z,101988.71
2019-02-20T02:55:41.052Z,101995.50
2019-02-20T02:58:10.166Z,101990.84
2019-02-20T03:00:39.544Z,101990.11
2019-02-20T03:03:09.599Z,101987.00
2019-02-20T03:05:38.722Z,101984.62
2019-02-20T03:08:07.832Z,101985.50
2019-02-20T03:10:36.971Z,101984.70
2019-02-20T03:13:06.076Z,101987.91
2019-02-20T03:15:35.189Z,101988.27
2019-02-20T03:18:04.305Z,101990.59
2019-02-20T03:20:33.429Z,101987.98
2019-02-20T03:23:02.546Z,101985.45
2019-02-20T03:25:31.660Z,101991.06
2019-02-20T03:28:00.787Z,101988.59
2019-02-20T03:30:30.866Z,101995.36
2019-02-20T03:32:59.991Z,101997.13
2019-02-20T03:35:29.101Z,101995.50
2019-02-20T03:37:58.212Z,102001.25
2019-02-20T03:40:27.325Z,102005.08
2019-02-20T03:42:56.441Z,102001.27
2019-02-20T03:45:25.893Z,102004.55
2019-02-20T03:47:55.033Z,102006.81
2019-02-20T03:50:24.385Z,102006.81
2019-02-20T03:52:53.508Z,102009.34
2019-02-20T03:55:22.622Z,102007.54
2019-02-20T03:57:52.819Z,102018.72
2019-02-20T04:00:21.950Z,102009.45
2019-02-20T04:02:51.077Z,102007.02
2019-02-20T04:05:20.199Z,102018.58
2019-02-20T04:07:49.321Z,102018.45
2019-02-20T04:10:18.442Z,102019.68
2019-02-20T04:12:47.850Z,102021.16
2019-02-20T04:15:17.301Z,102019.53
2019-02-20T04:17:47.416Z,102029.06
2019-02-20T04:20:16.539Z,102025.55
2019-02-20T04:22:45.657Z,102019.14
2019-02-20T04:25:14.779Z,102028.86
2019-02-20T04:27:43.897Z,102028.44
2019-02-20T04:30:13.014Z,102024.81
2019-02-20T04:32:42.137Z,102025.30
2019-02-20T04:35:11.251Z,102027.63
2019-02-20T04:37:40.477Z,102030.02
2019-02-20T04:40:09.671Z,102028.86
2019-02-20T04:42:38.777Z,102025.64
2019-02-20T04:45:08.208Z,102025.64
2019-02-20T04:47:37.358Z,102025.14
2019-02-20T04:50:08.622Z,102027.02
2019-02-20T04:52:37.790Z,102022.08
2019-02-20T04:55:07.247Z,102023.64
2019-02-20T04:57:37.334Z,102026.45
2019-02-20T05:00:12.206Z,102022.90
2019-02-20T05:02:41.323Z,102025.77
2019-02-20T05:05:10.441Z,102017.15
2019-02-20T05:07:39.552Z,102011.95
2019-02-20T05:10:10.118Z,102009.60
2019-02-20T05:12:39.529Z,102014.34
2019-02-20T05:15:08.649Z,102014.88
2019-02-20T05:17:37.773Z,102021.38
2019-02-20T05:20:08.727Z,102020.55
2019-02-20T05:22:37.851Z,102012.56
2019-02-20T05:25:06.973Z,102019.06
2019-02-20T05:27:36.098Z,102019.00
2019-02-20T05:30:06.445Z,102020.42
2019-02-20T05:32:35.573Z,102021.94
2019-02-20T05:35:04.926Z,102025.21
2019-02-20T05:37:34.050Z,102017.33
2019-02-20T05:40:04.397Z,102018.52
2019-02-20T05:42:33.516Z,102027.66
2019-02-20T05:45:02.703Z,102019.39
2019-02-20T05:47:31.818Z,102023.11
2019-02-20T05:50:00.934Z,102023.73
2019-02-20T05:52:30.054Z,102020.70
2019-02-20T05:54:59.184Z,102023.78
2019-02-20T05:57:28.312Z,102027.27
2019-02-20T05:59:57.670Z,102023.51
2019-02-20T06:02:26.861Z,102029.87
2019-02-20T06:04:56.026Z,102030.48
2019-02-20T06:07:25.096Z,102038.76
2019-02-20T06:09:54.340Z,102036.98
2019-02-20T06:12:23.459Z,102038.30
2019-02-20T06:14:52.823Z,102044.80
2019-02-20T06:17:21.938Z,102047.81
2019-02-20T06:19:51.063Z,102047.66
2019-02-20T06:22:20.201Z,102044.97
2019-02-20T06:24:49.330Z,102048.42
2019-02-20T06:27:19.424Z,102044.11
2019-02-20T06:29:48.787Z,102041.98
2019-02-20T06:32:17.918Z,102042.55
2019-02-20T06:34:47.044Z,102048.16
2019-02-20T06:37:16.173Z,102054.58
2019-02-20T06:39:45.521Z,102061.61
2019-02-20T06:42:14.912Z,102054.38
2019-02-20T06:44:44.007Z,102061.19
2019-02-20T06:47:13.368Z,102065.98
2019-02-20T06:49:42.722Z,102063.96
2019-02-20T06:52:12.082Z,102064.22
2019-02-20T06:54:41.196Z,102061.66
2019-02-20T06:57:10.549Z,102069.14
2019-02-20T06:59:39.887Z,102066.08
2019-02-20T07:02:09.128Z,102074.55
2019-02-20T07:04:38.249Z,102066.48
2019-02-20T07:07:10.623Z,102070.18
2019-02-20T07:09:49.648Z,102067.64
2019-02-20T07:12:27.868Z,102075.23
2019-02-20T07:15:11.956Z,102090.00
2019-02-20T07:17:44.740Z,102089.59
2019-02-20T07:20:28.783Z,102093.14
2019-02-20T07:23:16.014Z,102088.30
2019-02-20T07:25:51.139Z,102090.84
2019-02-20T07:28:39.559Z,102097.03
2019-02-20T07:31:08.682Z,102096.98
2019-02-20T07:33:37.800Z,102095.98
2019-02-20T07:36:06.938Z,102097.81
2019-02-20T07:38:36.109Z,102103.16
2019-02-20T07:41:05.244Z,102107.48
2019-02-20T07:43:34.598Z,102105.41
2019-02-20T07:46:03.722Z,102111.17
2019-02-20T07:48:34.019Z,102110.91
2019-02-20T07:51:04.104Z,102113.35
2019-02-20T07:53:34.202Z,102115.28
2019-02-20T07:56:03.317Z,102119.71
2019-02-20T07:58:32.438Z,102121.99
2019-02-20T08:01:01.571Z,102124.13
2019-02-20T08:03:30.682Z,102130.31
2019-02-20T08:05:59.798Z,102125.99
2019-02-20T08:08:28.936Z,102131.81
2019-02-20T08:10:58.042Z,102134.63
2019-02-20T08:13:27.177Z,102136.25
2019-02-20T08:15:56.551Z,102139.27
2019-02-20T08:18:25.646Z,102137.55
2019-02-20T08:20:54.763Z,102139.50
2019-02-20T08:23:23.893Z,102139.28
2019-02-20T08:25:53.014Z,102150.11
2019-02-20T08:28:22.138Z,102150.64
2019-02-20T08:30:51.261Z,102146.05
2019-02-20T08:33:20.381Z,102151.55
2019-02-20T08:35:49.498Z,102146.74
2019-02-20T08:38:18.621Z,102159.92
2019-02-20T08:40:47.778Z,102148.52
2019-02-20T08:43:17.825Z,102145.25
2019-02-20T08:45:46.938Z,102148.16
2019-02-20T08:48:17.035Z,102152.82
2019-02-20T08:50:46.421Z,102153.94
2019-02-20T08:53:15.609Z,102167.48
2019-02-20T08:55:44.727Z,102168.09
2019-02-20T08:58:13.854Z,102167.48
2019-02-20T09:00:42.975Z,102167.82
2019-02-20T09:03:12.106Z,102172.44
2019-02-20T09:05:41.294Z,102171.05
2019-02-20T09:08:10.455Z,102174.81
2019-02-20T09:10:39.535Z,102171.32
2019-02-20T09:13:08.665Z,102169.36
2019-02-20T09:15:37.775Z,102178.63
2019-02-20T09:18:06.913Z,102181.14
2019-02-20T09:20:36.029Z,102176.95
2019-02-20T09:23:05.145Z,102176.09
2019-02-20T09:25:41.333Z,102171.52
2019-02-20T09:28:05.184Z,102177.34
2019-02-20T09:30:34.275Z,102180.97
2019-02-20T09:33:03.397Z,102174.62
2019-02-20T09:35:32.513Z,102177.83
2019-02-20T09:38:01.628Z,102178.03
2019-02-20T09:40:30.756Z,102174.23
2019-02-20T09:42:59.882Z,102177.98
2019-02-20T09:45:29.007Z,102174.58
2019-02-20T09:47:58.131Z,102166.75
2019-02-20T09:50:28.219Z,102173.57
2019-02-20T09:52:57.341Z,102171.91
2019-02-20T09:55:26.473Z,102167.28
2019-02-20T09:57:55.584Z,102172.79
2019-02-20T10:00:25.675Z,102176.37
2019-02-20T10:02:54.791Z,102172.34
2019-02-20T10:05:24.240Z,102174.01
2019-02-20T10:07:53.408Z,102164.14
2019-02-20T10:10:22.854Z,102168.09
2019-02-20T10:12:51.971Z,102167.03
2019-02-20T10:15:21.092Z,102170.61
2019-02-20T10:17:50.210Z,102168.48
2019-02-20T10:20:19.345Z,102168.33
2019-02-20T10:22:48.463Z,102169.44
2019-02-20T10:25:17.587Z,102176.63
2019-02-20T10:27:46.695Z,102169.59
2019-02-20T10:30:17.931Z,102172.42
2019-02-20T10:32:47.096Z,102177.10
2019-02-20T10:35:16.240Z,102182.97
2019-02-20T10:37:45.356Z,102182.95
2019-02-20T10:40:14.477Z,102187.66
2019-02-20T10:42:43.591Z,102188.57
2019-02-20T10:45:13.348Z,102188.39
2019-02-20T10:47:42.476Z,102191.78
2019-02-20T10:50:12.437Z,102187.53
2019-02-20T10:52:41.630Z,102191.62
2019-02-20T10:55:10.990Z,102185.42
2019-02-20T10:57:40.119Z,102181.86
2019-02-20T11:00:23.472Z,102182.51
2019-02-20T11:02:48.331Z,102182.67
2019-02-20T11:05:17.460Z,102188.17
2019-02-20T11:07:47.855Z,102191.41
2019-02-20T11:10:16.977Z,102182.61
2019-02-20T11:12:46.448Z,102190.66
2019-02-20T11:15:15.638Z,102192.85
2019-02-20T11:17:44.828Z,102188.31
2019-02-20T11:20:14.183Z,102186.05
2019-02-20T11:22:43.309Z,102183.14
2019-02-20T11:25:12.907Z,102185.27
2019-02-20T11:27:42.028Z,102193.25
2019-02-20T11:30:19.600Z,102189.69
2019-02-20T11:32:48.721Z,102192.94
2019-02-20T11:35:17.856Z,102200.55
2019-02-20T11:37:46.976Z,102199.20
2019-02-20T11:40:16.110Z,102190.74
2019-02-20T11:42:45.235Z,102199.47
2019-02-20T11:45:16.457Z,102200.89
2019-02-20T11:47:45.584Z,102197.00
2019-02-20T11:50:14.702Z,102201.91
2019-02-20T11:52:43.839Z,102198.39
2019-02-20T11:55:14.000Z,102200.41
2019-02-20T11:57:43.131Z,102200.94
2019-02-20T12:00:14.646Z,102205.49
2019-02-20T12:02:43.775Z,102198.23
2019-02-20T12:05:12.897Z,102190.56
2019-02-20T12:07:42.263Z,102198.16
2019-02-20T12:10:12.950Z,102195.77
2019-02-20T12:12:42.254Z,102187.36
2019-02-20T12:15:11.615Z,102189.13
2019-02-20T12:17:40.750Z,102190.80
2019-02-20T12:20:09.864Z,102186.88
2019-02-20T12:22:39.296Z,102180.11
2019-02-20T12:25:09.468Z,102174.20
2019-02-20T12:27:38.598Z,102175.28
2019-02-20T12:30:11.891Z,102178.39
2019-02-20T12:32:41.255Z,102176.83
2019-02-20T12:35:10.365Z,102183.06
2019-02-20T12:37:39.480Z,102183.74
2019-02-20T12:40:09.836Z,102193.34
2019-02-20T12:42:38.953Z,102196.08
2019-02-20T12:45:08.751Z,102196.83
2019-02-20T12:47:37.902Z,102195.80
2019-02-20T12:50:12.005Z,102191.42
2019-02-20T12:52:41.126Z,102195.30
2019-02-20T12:55:10.420Z,102191.05
2019-02-20T12:57:39.542Z,102198.29
2019-02-20T13:00:11.454Z,102191.85
2019-02-20T13:02:40.795Z,102188.50
2019-02-20T13:05:09.909Z,102181.61
2019-02-20T13:07:39.325Z,102179.03
2019-02-20T13:10:09.193Z,102174.56
2019-02-20T13:12:38.305Z,102175.06
2019-02-20T13:15:10.038Z,102178.38
2019-02-20T13:17:39.384Z,102178.43
2019-02-20T13:20:10.042Z,102175.41
2019-02-20T13:22:39.570Z,102172.45
2019-02-20T13:25:09.536Z,102163.47
2019-02-20T13:27:40.153Z,102170.69
2019-02-20T13:30:11.718Z,102179.32
2019-02-20T13:32:41.057Z,102175.02
2019-02-20T13:35:11.147Z,102173.27
2019-02-20T13:37:40.337Z,102172.23
2019-02-20T13:40:10.590Z,102169.55
2019-02-20T13:42:39.698Z,102178.58
2019-02-20T13:45:09.305Z,102176.00
2019-02-20T13:47:40.363Z,102172.11
2019-02-20T13:50:11.916Z,102168.33
2019-02-20T13:52:41.351Z,102173.26
2019-02-20T13:55:10.471Z,102165.80
2019-02-20T13:57:40.563Z,102160.16
2019-02-20T14:00:13.434Z,102170.80
2019-02-20T14:02:42.705Z,102157.02
2019-02-20T14:05:11.827Z,102158.09
2019-02-20T14:07:42.031Z,102164.64
2019-02-20T14:10:12.204Z,102157.51
2019-02-20T14:12:42.284Z,102155.25
2019-02-20T14:15:12.117Z,102151.34
2019-02-20T14:17:41.233Z,102149.61
2019-02-20T14:20:11.492Z,102152.28
2019-02-20T14:22:40.957Z,102148.00
2019-02-20T14:25:10.754Z,102150.54
2019-02-20T14:27:39.830Z,102142.91
2019-02-20T14:30:12.580Z,102155.59
2019-02-20T14:32:41.700Z,102145.65
2019-02-20T14:35:12.669Z,102148.77
2019-02-20T14:37:43.447Z,102143.61
2019-02-20T14:40:12.571Z,102144.97
2019-02-20T14:42:41.738Z,102146.73
2019-02-20T14:45:15.943Z,102149.84
2019-02-20T14:47:45.059Z,102138.81
2019-02-20T14:50:14.173Z,102162.24
2019-02-20T14:52:43.289Z,102152.91
2019-02-20T14:55:12.409Z,102153.60
2019-02-20T14:57:41.530Z,102148.78
2019-02-20T15:00:13.060Z,102156.25
2019-02-20T15:02:42.577Z,102157.41
2019-02-20T15:05:12.113Z,102160.81
2019-02-20T15:07:41.300Z,102167.36
2019-02-20T15:10:11.387Z,102168.13
2019-02-20T15:12:40.504Z,102165.16
2019-02-20T15:15:13.099Z,102163.39
2019-02-20T15:17:42.228Z,102165.37
2019-02-20T15:20:11.419Z,102164.73
2019-02-20T15:22:40.571Z,102168.74
2019-02-20T15:25:09.962Z,102166.05
2019-02-20T15:27:39.083Z,102162.44
2019-02-20T15:30:12.461Z,102168.07
2019-02-20T15:32:41.751Z,102168.57
2019-02-20T15:35:11.136Z,102164.94
2019-02-20T15:37:40.262Z,102170.95
2019-02-20T15:40:09.747Z,102164.38
2019-02-20T15:42:38.883Z,102170.80
2019-02-20T15:45:12.175Z,102164.05
2019-02-20T15:47:41.305Z,102166.70
2019-02-20T15:50:14.459Z,102168.52
2019-02-20T15:52:43.592Z,102174.41
2019-02-20T15:55:13.679Z,102174.61
2019-02-20T15:57:42.822Z,102172.07
2019-02-20T16:00:18.220Z,102176.68
2019-02-20T16:02:47.358Z,102179.14
2019-02-20T16:05:16.999Z,102176.45
2019-02-20T16:07:46.118Z,102176.88
2019-02-20T16:10:15.407Z,102183.08
2019-02-20T16:12:44.660Z,102189.75
2019-02-20T16:15:14.698Z,102190.48
2019-02-20T16:17:44.895Z,102188.66
2019-02-20T16:20:14.461Z,102184.68
2019-02-20T16:22:43.582Z,102186.58
2019-02-20T16:25:15.094Z,102183.45
2019-02-20T16:27:47.027Z,102192.85
2019-02-20T16:30:15.210Z,102188.91
2019-02-20T16:32:44.325Z,102188.37
2019-02-20T16:35:14.691Z,102190.59
2019-02-20T16:37:44.054Z,102194.22
2019-02-20T16:40:14.969Z,102197.64
2019-02-20T16:42:44.156Z,102200.29
2019-02-20T16:45:21.905Z,102198.70
2019-02-20T16:47:51.457Z,102199.85
2019-02-20T16:50:20.833Z,102197.09
2019-02-20T16:52:50.327Z,102201.52
2019-02-20T16:55:19.996Z,102204.00
2019-02-20T16:57:56.251Z,102212.11
2019-02-20T17:00:22.098Z,102216.16
2019-02-20T17:02:51.917Z,102216.99
2019-02-20T17:05:21.052Z,102215.55
2019-02-20T17:07:50.409Z,102219.19
2019-02-20T17:10:19.775Z,102222.14
2019-02-20T17:12:48.896Z,102231.77
2019-02-20T17:15:18.116Z,102226.84
2019-02-20T17:17:47.503Z,102232.31
2019-02-20T17:20:18.081Z,102233.86
2019-02-20T17:22:47.181Z,102237.45
2019-02-20T17:25:16.883Z,102239.82
2019-02-20T17:27:46.010Z,102238.85
2019-02-20T17:30:16.279Z,102243.22
2019-02-20T17:32:45.792Z,102251.31
2019-02-20T17:35:17.061Z,102251.94
2019-02-20T17:37:45.915Z,102256.34
2019-02-20T17:40:15.214Z,102257.56
2019-02-20T17:42:44.412Z,102252.95
2019-02-20T17:45:17.875Z,102255.05
2019-02-20T17:47:47.227Z,102253.47
2019-02-20T17:50:22.146Z,102250.87
2019-02-20T17:52:51.511Z,102252.73
2019-02-20T17:55:20.893Z,102259.52
2019-02-20T17:57:50.005Z,102250.00
2019-02-20T18:00:20.784Z,102262.22
2019-02-20T18:02:49.885Z,102259.41
2019-02-20T18:05:19.251Z,102260.09
2019-02-20T18:07:51.725Z,102261.58
2019-02-20T18:10:19.200Z,102256.27
2019-02-20T18:12:48.324Z,102258.40
2019-02-20T18:15:17.455Z,102263.05
2019-02-20T18:17:46.580Z,102262.20
2019-02-20T18:20:15.700Z,102262.55
2019-02-20T18:22:44.824Z,102263.08
2019-02-20T18:25:13.956Z,102268.62
2019-02-20T18:27:43.163Z,102272.71
2019-02-20T18:30:16.139Z,102275.69
2019-02-20T18:32:45.639Z,102272.61
2019-02-20T18:35:16.864Z,102276.27
2019-02-20T18:37:45.981Z,102277.42
2019-02-20T18:40:17.984Z,102274.47
2019-02-20T18:42:47.181Z,102275.88
2019-02-20T18:45:16.306Z,102281.28
2019-02-20T18:47:45.435Z,102281.61
2019-02-20T18:50:15.540Z,102281.26
2019-02-20T18:52:44.728Z,102281.05
2019-02-20T18:55:14.219Z,102284.16
2019-02-20T18:57:43.551Z,102283.91
2019-02-20T19:00:15.324Z,102285.69
2019-02-20T19:02:44.618Z,102287.10
2019-02-20T19:05:13.718Z,102279.78
2019-02-20T19:07:44.858Z,102285.19
2019-02-20T19:10:24.523Z,102287.09
2019-02-20T19:13:11.771Z,102283.26
2019-02-20T19:15:56.326Z,102282.20
2019-02-20T19:18:43.809Z,102283.19
2019-02-20T19:21:34.129Z,102291.27
2019-02-20T19:24:18.237Z,102283.10
2019-02-20T19:26:48.389Z,102285.40
2019-02-20T19:29:20.872Z,102288.20
2019-02-20T19:32:15.669Z,102290.39
2019-02-20T19:35:04.016Z,102287.20
2019-02-20T19:37:51.329Z,102286.95
2019-02-20T19:40:32.251Z,102292.99
2019-02-20T19:43:07.587Z,102292.53
2019-02-20T19:45:40.005Z,102288.09
2019-02-20T19:48:27.013Z,102287.55
2019-02-20T19:51:08.187Z,102291.53
2019-02-20T19:54:01.204Z,102298.39
2019-02-20T19:56:48.505Z,102291.87
2019-02-20T19:59:40.496Z,102290.59
2019-02-20T20:02:15.575Z,102288.63
2019-02-20T20:05:22.557Z,102287.16
2019-02-20T20:07:57.975Z,102286.73
2019-02-20T20:10:51.734Z,102290.52
2019-02-20T20:13:24.185Z,102287.16
2019-02-20T20:15:59.121Z,102286.59
2019-02-20T20:18:51.114Z,102289.78
2019-02-20T20:21:23.482Z,102282.67
2019-02-20T20:24:12.493Z,102285.21
2019-02-20T20:26:50.128Z,102287.98
2019-02-20T20:29:51.399Z,102290.02
2019-02-20T20:32:32.800Z,102292.20
2019-02-20T20:35:10.992Z,102296.82
2019-02-20T20:37:46.248Z,102290.42
2019-02-20T20:40:44.261Z,102293.49
2019-02-20T20:43:25.563Z,102294.37
2019-02-20T20:46:20.565Z,102301.31
2019-02-20T20:49:04.447Z,102305.70
2019-02-20T20:51:40.595Z,102312.75
2019-02-20T20:54:30.758Z,102308.83
2019-02-20T20:57:24.725Z,102310.56
2019-02-20T21:00:06.111Z,102314.11
2019-02-20T21:02:41.634Z,102313.67
2019-02-20T21:05:22.747Z,102320.42
2019-02-20T21:08:03.702Z,102315.95
2019-02-20T21:11:10.409Z,102317.34
2019-02-20T21:14:05.234Z,102315.77
2019-02-20T21:16:52.295Z,102318.55
2019-02-20T21:19:42.610Z,102319.45
2019-02-20T21:22:20.944Z,102327.86
2019-02-20T21:25:15.775Z,102330.66
2019-02-20T21:27:54.771Z,102329.63
2019-02-20T21:30:46.687Z,102328.51
2019-02-20T21:33:25.716Z,102333.21
2019-02-20T21:36:01.132Z,102329.82
2019-02-20T21:38:42.562Z,102333.14
2019-02-20T21:41:23.750Z,102333.42
2019-02-20T21:44:04.940Z,102331.75
2019-02-20T21:46:54.576Z,102332.81
2019-02-20T21:49:29.516Z,102334.25
2019-02-20T21:52:10.687Z,102340.23
2019-02-20T21:54:51.772Z,102345.45
2019-02-20T21:57:24.145Z,102344.91
2019-02-20T22:00:05.594Z,102340.57
2019-02-20T22:02:51.397Z,102341.95
2019-02-20T22:05:24.187Z,102342.47
2019-02-20T22:08:13.076Z,102343.86
2019-02-20T22:11:13.551Z,102343.81
2019-02-20T22:14:00.563Z,102347.58
2019-02-20T22:16:41.560Z,102344.08
2019-02-20T22:19:14.090Z,102351.59
2019-02-20T22:22:08.922Z,102350.98
2019-02-20T22:25:15.186Z,102355.90
2019-02-20T22:27:53.494Z,102369.69
2019-02-20T22:30:26.193Z,102362.00
2019-02-20T22:33:16.843Z,102363.38
2019-02-20T22:36:06.688Z,102364.91
2019-02-20T22:38:55.802Z,102362.08
2019-02-20T22:41:30.958Z,102365.44
2019-02-20T22:44:03.419Z,102363.07
2019-02-20T22:46:36.139Z,102363.40
2019-02-20T22:49:18.473Z,102363.67
2019-02-20T22:51:53.992Z,102357.58
2019-02-20T22:54:50.227Z,102357.64
2019-02-20T22:57:40.694Z,102354.81
2019-02-20T23:00:37.336Z,102360.91
2019-02-20T23:03:37.003Z,102360.30
2019-02-20T23:06:09.684Z,102365.52
2019-02-20T23:08:53.819Z,102351.51
2019-02-20T23:11:26.579Z,102353.70
2019-02-20T23:14:07.404Z,102361.52
2019-02-20T23:16:36.607Z,102363.52
2019-02-20T23:19:05.727Z,102364.75
2019-02-20T23:21:34.861Z,102364.22
2019-02-20T23:24:03.970Z,102363.05
2019-02-20T23:26:33.091Z,102369.23
2019-02-20T23:29:02.209Z,102367.23
2019-02-20T23:31:31.326Z,102365.31
2019-02-20T23:34:00.452Z,102362.38
2019-02-20T23:36:29.572Z,102373.70
2019-02-20T23:38:58.691Z,102367.86
2019-02-20T23:41:27.804Z,102372.13
2019-02-20T23:43:56.935Z,102378.08
2019-02-20T23:46:26.049Z,102377.55
2019-02-20T23:48:55.183Z,102377.34
2019-02-20T23:51:24.303Z,102377.80
2019-02-20T23:53:53.444Z,102385.09
2019-02-20T23:56:22.544Z,102388.38
2019-02-20T23:58:51.663Z,102384.00
